Coral Coast — WDF5120 — position and weather

sailwx.info

Track history (hours):
 
Tides and Currents Weather Stations Pressure Air Temp Water Temp Dewpoint Dewpoint Depression Visibility Wind Speed Wind Dir Waves Ship Positions

Coral Coast

Owner: Dann MarineTowing, LC., Chesapeake City, MD. More information available from US FCC via Universal Licensing System and Coast Guard Vessel Documentation Center.

Last reported at 2014-Dec-15 17:08 UTC. Time now 2014-Dec-19 21:41 UTC.
Position N 39°27' W 074°10'.

Length 70 m; draft 5.3 m.

Type: Tug. MMSI: 367459570.

Date/timePositionNaut miles runAvg speedWind from/ knotsBaromVisibWave heightAir tempDewpointWater temp
2014-Dec-15 17:08N 39°27' W 074°10'5 9.1
2014-Dec-15 16:32N 39°31' W 074°07'9 9.2
2014-Dec-15 15:33N 39°40' W 074°02'9 9.2
2014-Dec-15 14:31N 39°49' W 073°58'11 9.2
2014-Dec-15 13:19N 39°60' W 073°56'17 9.4
2014-Dec-15 11:28N 40°17' W 073°53'9 9.4
2014-Dec-15 10:32N 40°26' W 073°54'9 9.0
2014-Dec-15 09:34N 40°32' W 074°01'8 8.5
2014-Dec-15 08:33N 40°41' W 074°01'7 6.9
2014-Dec-15 07:33N 40°47' W 073°56'4 3.6
2014-Dec-15 06:32N 40°47' W 073°52'1 0.7
2014-Dec-15 04:29N 40°46' W 073°51'1 0.6
2014-Dec-15 03:23N 40°46' W 073°51'4 5.0
2014-Dec-15 02:34N 40°46' W 073°57'8 7.5
2014-Dec-15 01:33N 40°40' W 074°02'4 3.9
2014-Dec-15 00:33N 40°39' W 074°07'4 3.5
2014-Dec-14 23:32N 40°38' W 074°12'0 0.1
2014-Dec-14 21:34N 40°38' W 074°12'5 5.3
2014-Dec-14 20:34N 40°33' W 074°14'0 0.0
2014-Dec-14 19:32N 40°33' W 074°14'0 0.0
2014-Dec-14 18:33N 40°33' W 074°15'7 6.5
2014-Dec-14 17:33N 40°39' W 074°10'2 1.9
2014-Dec-14 16:33N 40°39' W 074°07'5 5.4
2014-Dec-14 15:33N 40°42' W 074°01'9 8.9
2014-Dec-14 14:33N 40°48' W 073°53'3 2.7
2014-Dec-14 13:33N 40°46' W 073°51'0 0.0
2014-Dec-14 12:29N 40°46' W 073°51'0 0.0
2014-Dec-14 11:27N 40°46' W 073°51'0 0.0
2014-Dec-14 10:33N 40°46' W 073°51'0 0.0
2014-Dec-14 09:32N 40°46' W 073°51'0 0.0
2014-Dec-14 08:33N 40°46' W 073°51'2 2.0
2014-Dec-14 07:31N 40°48' W 073°52'7 7.3
2014-Dec-14 06:34N 40°43' W 073°58'8 7.3
2014-Dec-14 05:30N 40°36' W 074°02'9 4.3
2014-Dec-14 03:21N 40°29' W 073°54'31 4.3
2014-Dec-13 20:08N 39°58' W 073°56'4 6.1
2014-Dec-13 19:28N 39°54' W 073°57'6 6.1
2014-Dec-13 18:33N 39°48' W 073°57'6 6.2
2014-Dec-13 17:34N 39°42' W 073°60'6 6.2
2014-Dec-13 16:33N 39°36' W 074°03'6 6.3
2014-Dec-13 15:33N 39°31' W 074°07'320 6.8
2014-Dec-11 16:15N 34°28' W 076°18'  
Track history (hours):
 
Tides and Currents Weather Stations Pressure Air Temp Water Temp Dewpoint Dewpoint Depression Visibility Wind Speed Wind Dir Waves Ship Positions

Coral Coast

Owner: Dann MarineTowing, LC., Chesapeake City, MD. More information available from US FCC via Universal Licensing System and Coast Guard Vessel Documentation Center.

Last reported at 2014-Dec-15 17:08 UTC. Time now 2014-Dec-19 21:41 UTC.
Position N 39°27' W 074°10'.

Length 70 m; draft 5.3 m.

Type: Tug. MMSI: 367459570.

Date/timePositionNaut miles runAvg speedWind from/ knotsBaromVisibWave heightAir tempDewpointWater temp
2014-Dec-15 17:08N 39°27' W 074°10'5 9.1
2014-Dec-15 16:32N 39°31' W 074°07'9 9.2
2014-Dec-15 15:33N 39°40' W 074°02'9 9.2
2014-Dec-15 14:31N 39°49' W 073°58'11 9.2
2014-Dec-15 13:19N 39°60' W 073°56'17 9.4
2014-Dec-15 11:28N 40°17' W 073°53'9 9.4
2014-Dec-15 10:32N 40°26' W 073°54'9 9.0
2014-Dec-15 09:34N 40°32' W 074°01'8 8.5
2014-Dec-15 08:33N 40°41' W 074°01'7 6.9
2014-Dec-15 07:33N 40°47' W 073°56'4 3.6
2014-Dec-15 06:32N 40°47' W 073°52'1 0.7
2014-Dec-15 04:29N 40°46' W 073°51'1 0.6
2014-Dec-15 03:23N 40°46' W 073°51'4 5.0
2014-Dec-15 02:34N 40°46' W 073°57'8 7.5
2014-Dec-15 01:33N 40°40' W 074°02'4 3.9
2014-Dec-15 00:33N 40°39' W 074°07'4 3.5
2014-Dec-14 23:32N 40°38' W 074°12'0 0.1
2014-Dec-14 21:34N 40°38' W 074°12'5 5.3
2014-Dec-14 20:34N 40°33' W 074°14'0 0.0
2014-Dec-14 19:32N 40°33' W 074°14'0 0.0
2014-Dec-14 18:33N 40°33' W 074°15'7 6.5
2014-Dec-14 17:33N 40°39' W 074°10'2 1.9
2014-Dec-14 16:33N 40°39' W 074°07'5 5.4
2014-Dec-14 15:33N 40°42' W 074°01'9 8.9
2014-Dec-14 14:33N 40°48' W 073°53'3 2.7
2014-Dec-14 13:33N 40°46' W 073°51'0 0.0
2014-Dec-14 12:29N 40°46' W 073°51'0 0.0
2014-Dec-14 11:27N 40°46' W 073°51'0 0.0
2014-Dec-14 10:33N 40°46' W 073°51'0 0.0
2014-Dec-14 09:32N 40°46' W 073°51'0 0.0
2014-Dec-14 08:33N 40°46' W 073°51'2 2.0
2014-Dec-14 07:31N 40°48' W 073°52'7 7.3
2014-Dec-14 06:34N 40°43' W 073°58'8 7.3
2014-Dec-14 05:30N 40°36' W 074°02'9 4.3
2014-Dec-14 03:21N 40°29' W 073°54'31 4.3
2014-Dec-13 20:08N 39°58' W 073°56'4 6.1
2014-Dec-13 19:28N 39°54' W 073°57'6 6.1
2014-Dec-13 18:33N 39°48' W 073°57'6 6.2
2014-Dec-13 17:34N 39°42' W 073°60'6 6.2
2014-Dec-13 16:33N 39°36' W 074°03'6 6.3
2014-Dec-13 15:33N 39°31' W 074°07'320 6.8
2014-Dec-11 16:15N 34°28' W 076°18'  

Dump ship's entire track history